sensor_id;sensor_type;location;lat;lon;timestamp;pressure;altitude;pressure_sealevel;temperature;humidity
64080;BME280;51042;49.696;10.808;2024-03-08T00:00:12;98789.19;;;0.22;100.00
64080;BME280;51042;49.696;10.808;2024-03-08T00:02:39;98784.47;;;0.19;100.00
64080;BME280;51042;49.696;10.808;2024-03-08T00:05:05;98781.38;;;0.17;100.00
64080;BME280;51042;49.696;10.808;2024-03-08T00:07:31;98782.50;;;0.16;100.00
64080;BME280;51042;49.696;10.808;2024-03-08T00:09:57;98785.56;;;0.15;100.00
64080;BME280;51042;49.696;10.808;2024-03-08T00:12:22;98780.88;;;0.12;100.00
64080;BME280;51042;49.696;10.808;2024-03-08T00:14:48;98782.00;;;0.11;100.00
64080;BME280;51042;49.696;10.808;2024-03-08T00:17:13;98782.00;;;0.11;100.00
64080;BME280;51042;49.696;10.808;2024-03-08T00:19:40;98781.94;;;0.07;100.00
64080;BME280;51042;49.696;10.808;2024-03-08T00:22:06;98775.34;;;0.05;100.00
64080;BME280;51042;49.696;10.808;2024-03-08T00:24:32;98776.47;;;0.04;100.00
64080;BME280;51042;49.696;10.808;2024-03-08T00:26:58;98782.94;;;-0.01;100.00
64080;BME280;51042;49.696;10.808;2024-03-08T00:29:23;98785.19;;;-0.03;100.00
64080;BME280;51042;49.696;10.808;2024-03-08T00:31:49;98780.09;;;-0.08;100.00
64080;BME280;51042;49.696;10.808;2024-03-08T00:34:14;98776.97;;;-0.10;100.00
64080;BME280;51042;49.696;10.808;2024-03-08T00:36:40;98776.19;;;-0.11;100.00
64080;BME280;51042;49.696;10.808;2024-03-08T00:39:06;98779.59;;;-0.14;100.00
64080;BME280;51042;49.696;10.808;2024-03-08T00:41:32;98774.91;;;-0.17;100.00
64080;BME280;51042;49.696;10.808;2024-03-08T00:43:58;98779.44;;;-0.21;100.00
64080;BME280;51042;49.696;10.808;2024-03-08T00:46:23;98784.00;;;-0.25;100.00
64080;BME280;51042;49.696;10.808;2024-03-08T00:48:49;98781.66;;;-0.26;100.00
64080;BME280;51042;49.696;10.808;2024-03-08T00:51:14;98773.56;;;-0.26;100.00
64080;BME280;51042;49.696;10.808;2024-03-08T00:53:41;98773.13;;;-0.28;100.00
64080;BME280;51042;49.696;10.808;2024-03-08T00:56:07;98777.31;;;-0.31;100.00
64080;BME280;51042;49.696;10.808;2024-03-08T00:58:35;98774.97;;;-0.32;100.00
64080;BME280;51042;49.696;10.808;2024-03-08T01:01:01;98780.38;;;-0.32;100.00
64080;BME280;51042;49.696;10.808;2024-03-08T01:03:27;98769.56;;;-0.32;100.00
64080;BME280;51042;49.696;10.808;2024-03-08T01:05:52;98773.75;;;-0.35;100.00
64080;BME280;51042;49.696;10.808;2024-03-08T01:08:18;98777.94;;;-0.37;100.00
64080;BME280;51042;49.696;10.808;2024-03-08T01:10:43;98779.19;;;-0.51;100.00
64080;BME280;51042;49.696;10.808;2024-03-08T01:13:08;98769.31;;;-0.62;100.00
64080;BME280;51042;49.696;10.808;2024-03-08T01:15:34;98776.38;;;-0.73;100.00
64080;BME280;51042;49.696;10.808;2024-03-08T01:18:00;98768.66;;;-0.75;100.00
64080;BME280;51042;49.696;10.808;2024-03-08T01:20:26;98771.56;;;-0.84;100.00
64080;BME280;51042;49.696;10.808;2024-03-08T01:22:52;98765.63;;;-0.89;100.00
64080;BME280;51042;49.696;10.808;2024-03-08T01:25:17;98773.63;;;-0.93;100.00
64080;BME280;51042;49.696;10.808;2024-03-08T01:27:42;98773.28;;;-0.91;100.00
64080;BME280;51042;49.696;10.808;2024-03-08T01:30:08;98771.78;;;-0.73;100.00
64080;BME280;51042;49.696;10.808;2024-03-08T01:32:34;98767.59;;;-0.70;100.00
64080;BME280;51042;49.696;10.808;2024-03-08T01:35:00;98759.44;;;-0.74;100.00
64080;BME280;51042;49.696;10.808;2024-03-08T01:37:25;98758.53;;;-0.62;100.00
64080;BME280;51042;49.696;10.808;2024-03-08T01:39:50;98766.84;;;-0.52;100.00
64080;BME280;51042;49.696;10.808;2024-03-08T01:42:16;98758.47;;;-0.47;100.00
64080;BME280;51042;49.696;10.808;2024-03-08T01:44:42;98753.38;;;-0.52;100.00
64080;BME280;51042;49.696;10.808;2024-03-08T01:47:09;98751.75;;;-0.56;100.00
64080;BME280;51042;49.696;10.808;2024-03-08T01:49:36;98749.34;;;-0.61;100.00
64080;BME280;51042;49.696;10.808;2024-03-08T01:52:02;98745.41;;;-0.64;100.00
64080;BME280;51042;49.696;10.808;2024-03-08T01:54:28;98744.91;;;-0.69;100.00
64080;BME280;51042;49.696;10.808;2024-03-08T01:56:55;98746.13;;;-0.67;100.00
64080;BME280;51042;49.696;10.808;2024-03-08T01:59:22;98747.53;;;-0.73;100.00
64080;BME280;51042;49.696;10.808;2024-03-08T02:01:48;98746.03;;;-0.70;100.00
64080;BME280;51042;49.696;10.808;2024-03-08T02:04:14;98736.19;;;-0.63;100.00
64080;BME280;51042;49.696;10.808;2024-03-08T02:06:39;98741.94;;;-0.64;100.00
64080;BME280;51042;49.696;10.808;2024-03-08T02:09:04;98738.31;;;-0.72;100.00
64080;BME280;51042;49.696;10.808;2024-03-08T02:11:35;98738.56;;;-0.77;100.00
64080;BME280;51042;49.696;10.808;2024-03-08T02:14:01;98737.28;;;-0.83;100.00
64080;BME280;51042;49.696;10.808;2024-03-08T02:16:26;98737.66;;;-0.85;100.00
64080;BME280;51042;49.696;10.808;2024-03-08T02:18:52;98741.38;;;-0.89;100.00
64080;BME280;51042;49.696;10.808;2024-03-08T02:21:18;98735.94;;;-0.93;100.00
64080;BME280;51042;49.696;10.808;2024-03-08T02:23:43;98733.50;;;-0.98;100.00
64080;BME280;51042;49.696;10.808;2024-03-08T02:26:09;98738.09;;;-0.98;100.00
64080;BME280;51042;49.696;10.808;2024-03-08T02:28:34;98734.28;;;-0.97;100.00
64080;BME280;51042;49.696;10.808;2024-03-08T02:31:00;98733.56;;;-0.94;100.00
64080;BME280;51042;49.696;10.808;2024-03-08T02:33:27;98735.94;;;-0.93;100.00
64080;BME280;51042;49.696;10.808;2024-03-08T02:35:53;98728.63;;;-0.92;100.00
64080;BME280;51042;49.696;10.808;2024-03-08T02:38:21;98722.91;;;-0.91;100.00
64080;BME280;51042;49.696;10.808;2024-03-08T02:40:48;98719.41;;;-0.91;100.00
64080;BME280;51042;49.696;10.808;2024-03-08T02:43:15;98716.78;;;-0.88;100.00
64080;BME280;51042;49.696;10.808;2024-03-08T02:45:41;98725.59;;;-0.91;100.00
64080;BME280;51042;49.696;10.808;2024-03-08T02:48:07;98717.84;;;-0.92;100.00
64080;BME280;51042;49.696;10.808;2024-03-08T02:50:33;98723.94;;;-0.95;100.00
64080;BME280;51042;49.696;10.808;2024-03-08T02:53:00;98716.13;;;-1.00;100.00
64080;BME280;51042;49.696;10.808;2024-03-08T02:55:29;98715.34;;;-1.01;100.00
64080;BME280;51042;49.696;10.808;2024-03-08T02:57:55;98712.41;;;-1.11;100.00
64080;BME280;51042;49.696;10.808;2024-03-08T03:00:21;98716.31;;;-1.25;100.00
64080;BME280;51042;49.696;10.808;2024-03-08T03:02:49;98716.88;;;-1.35;100.00
64080;BME280;51042;49.696;10.808;2024-03-08T03:05:25;98723.19;;;-1.43;100.00
64080;BME280;51042;49.696;10.808;2024-03-08T03:07:50;98713.75;;;-1.52;100.00
64080;BME280;51042;49.696;10.808;2024-03-08T03:10:17;98720.06;;;-1.60;100.00
64080;BME280;51042;49.696;10.808;2024-03-08T03:12:42;98710.34;;;-1.65;100.00
64080;BME280;51042;49.696;10.808;2024-03-08T03:15:08;98717.75;;;-1.62;100.00
64080;BME280;51042;49.696;10.808;2024-03-08T03:17:35;98712.69;;;-1.63;100.00
64080;BME280;51042;49.696;10.808;2024-03-08T03:20:00;98721.03;;;-1.69;100.00
64080;BME280;51042;49.696;10.808;2024-03-08T03:22:34;98716.69;;;-1.73;100.00
64080;BME280;51042;49.696;10.808;2024-03-08T03:24:59;98718.16;;;-1.76;100.00
64080;BME280;51042;49.696;10.808;2024-03-08T03:27:26;98716.13;;;-1.79;100.00
64080;BME280;51042;49.696;10.808;2024-03-08T03:29:51;98715.97;;;-1.86;100.00
64080;BME280;51042;49.696;10.808;2024-03-08T03:32:17;98723.59;;;-1.88;100.00
64080;BME280;51042;49.696;10.808;2024-03-08T03:34:43;98719.34;;;-1.89;100.00
64080;BME280;51042;49.696;10.808;2024-03-08T03:37:09;98724.72;;;-1.89;100.00
64080;BME280;51042;49.696;10.808;2024-03-08T03:39:38;98724.31;;;-1.91;100.00
64080;BME280;51042;49.696;10.808;2024-03-08T03:42:14;98735.41;;;-1.92;100.00
64080;BME280;51042;49.696;10.808;2024-03-08T03:44:41;98727.66;;;-1.94;100.00
64080;BME280;51042;49.696;10.808;2024-03-08T03:47:09;98721.94;;;-1.92;100.00
64080;BME280;51042;49.696;10.808;2024-03-08T03:49:34;98727.19;;;-1.68;100.00
64080;BME280;51042;49.696;10.808;2024-03-08T03:51:59;98725.28;;;-1.52;100.00
64080;BME280;51042;49.696;10.808;2024-03-08T03:54:25;98727.97;;;-1.36;100.00
64080;BME280;51042;49.696;10.808;2024-03-08T03:56:50;98730.06;;;-1.30;100.00
64080;BME280;51042;49.696;10.808;2024-03-08T03:59:18;98723.63;;;-1.25;100.00
64080;BME280;51042;49.696;10.808;2024-03-08T04:01:44;98729.72;;;-1.28;100.00
64080;BME280;51042;49.696;10.808;2024-03-08T04:04:09;98716.59;;;-1.30;100.00
64080;BME280;51042;49.696;10.808;2024-03-08T04:06:35;98714.69;;;-1.29;100.00
64080;BME280;51042;49.696;10.808;2024-03-08T04:09:00;98724.06;;;-1.23;100.00
64080;BME280;51042;49.696;10.808;2024-03-08T04:11:25;98718.25;;;-1.25;100.00
64080;BME280;51042;49.696;10.808;2024-03-08T04:13:51;98717.38;;;-1.29;100.00
64080;BME280;51042;49.696;10.808;2024-03-08T04:16:17;98724.66;;;-1.30;100.00
64080;BME280;51042;49.696;10.808;2024-03-08T04:18:43;98723.53;;;-1.29;100.00
64080;BME280;51042;49.696;10.808;2024-03-08T04:21:09;98714.97;;;-1.34;100.00
64080;BME280;51042;49.696;10.808;2024-03-08T04:23:34;98720.69;;;-1.36;100.00
64080;BME280;51042;49.696;10.808;2024-03-08T04:26:03;98722.19;;;-1.38;100.00
64080;BME280;51042;49.696;10.808;2024-03-08T04:28:32;98717.81;;;-1.43;100.00
64080;BME280;51042;49.696;10.808;2024-03-08T04:30:57;98713.13;;;-1.46;100.00
64080;BME280;51042;49.696;10.808;2024-03-08T04:33:23;98708.09;;;-1.47;100.00
64080;BME280;51042;49.696;10.808;2024-03-08T04:35:48;98711.56;;;-1.47;100.00
64080;BME280;51042;49.696;10.808;2024-03-08T04:38:14;98703.50;;;-1.47;100.00
64080;BME280;51042;49.696;10.808;2024-03-08T04:40:40;98704.28;;;-1.46;100.00
64080;BME280;51042;49.696;10.808;2024-03-08T04:43:06;98707.69;;;-1.49;100.00
64080;BME280;51042;49.696;10.808;2024-03-08T04:45:33;98700.22;;;-1.56;100.00
64080;BME280;51042;49.696;10.808;2024-03-08T04:47:58;98708.63;;;-1.57;100.00
64080;BME280;51042;49.696;10.808;2024-03-08T04:50:24;98705.59;;;-1.56;100.00
64080;BME280;51042;49.696;10.808;2024-03-08T04:52:49;98709.16;;;-1.52;100.00
64080;BME280;51042;49.696;10.808;2024-03-08T04:55:14;98712.63;;;-1.51;100.00
64080;BME280;51042;49.696;10.808;2024-03-08T04:57:40;98706.19;;;-1.47;100.00
64080;BME280;51042;49.696;10.808;2024-03-08T05:00:07;98710.97;;;-1.40;100.00
64080;BME280;51042;49.696;10.808;2024-03-08T05:02:36;98712.53;;;-1.39;100.00
64080;BME280;51042;49.696;10.808;2024-03-08T05:05:07;98710.53;;;-1.42;100.00
64080;BME280;51042;49.696;10.808;2024-03-08T05:07:34;98703.34;;;-1.38;100.00
64080;BME280;51042;49.696;10.808;2024-03-08T05:10:00;98698.47;;;-1.33;100.00
64080;BME280;51042;49.696;10.808;2024-03-08T05:12:27;98694.28;;;-1.30;100.00
64080;BME280;51042;49.696;10.808;2024-03-08T05:14:52;98687.44;;;-1.28;100.00
64080;BME280;51042;49.696;10.808;2024-03-08T05:17:18;98687.16;;;-1.23;100.00
64080;BME280;51042;49.696;10.808;2024-03-08T05:19:44;98684.91;;;-1.20;100.00
64080;BME280;51042;49.696;10.808;2024-03-08T05:22:09;98681.44;;;-1.21;100.00
64080;BME280;51042;49.696;10.808;2024-03-08T05:24:35;98684.53;;;-1.19;100.00
64080;BME280;51042;49.696;10.808;2024-03-08T05:27:01;98686.25;;;-1.11;100.00
64080;BME280;51042;49.696;10.808;2024-03-08T05:29:27;98681.03;;;-1.04;100.00
64080;BME280;51042;49.696;10.808;2024-03-08T05:31:53;98679.97;;;-0.99;100.00
64080;BME280;51042;49.696;10.808;2024-03-08T05:34:19;98677.38;;;-0.96;100.00
64080;BME280;51042;49.696;10.808;2024-03-08T05:36:46;98673.03;;;-1.00;100.00
64080;BME280;51042;49.696;10.808;2024-03-08T05:39:13;98675.66;;;-1.04;100.00
64080;BME280;51042;49.696;10.808;2024-03-08T05:41:38;98678.00;;;-1.02;100.00
64080;BME280;51042;49.696;10.808;2024-03-08T05:44:05;98679.91;;;-1.03;100.00
64080;BME280;51042;49.696;10.808;2024-03-08T05:46:30;98676.94;;;-0.98;100.00
64080;BME280;51042;49.696;10.808;2024-03-08T05:48:56;98675.38;;;-0.99;100.00
64080;BME280;51042;49.696;10.808;2024-03-08T05:51:23;98665.66;;;-1.03;100.00
64080;BME280;51042;49.696;10.808;2024-03-08T05:53:49;98665.66;;;-1.03;100.00
64080;BME280;51042;49.696;10.808;2024-03-08T05:56:14;98661.63;;;-0.94;100.00
64080;BME280;51042;49.696;10.808;2024-03-08T05:58:40;98656.75;;;-0.88;100.00
64080;BME280;51042;49.696;10.808;2024-03-08T06:01:05;98663.25;;;-0.89;100.00
64080;BME280;51042;49.696;10.808;2024-03-08T06:03:33;98655.28;;;-0.86;100.00
64080;BME280;51042;49.696;10.808;2024-03-08T06:05:59;98659.88;;;-0.86;100.00
64080;BME280;51042;49.696;10.808;2024-03-08T06:08:24;98645.63;;;-0.87;100.00
64080;BME280;51042;49.696;10.808;2024-03-08T06:10:54;98647.97;;;-0.85;100.00
64080;BME280;51042;49.696;10.808;2024-03-08T06:13:20;98648.38;;;-0.83;100.00
64080;BME280;51042;49.696;10.808;2024-03-08T06:15:45;98651.19;;;-0.79;100.00
64080;BME280;51042;49.696;10.808;2024-03-08T06:18:10;98647.41;;;-0.75;100.00
64080;BME280;51042;49.696;10.808;2024-03-08T06:20:36;98651.81;;;-0.67;100.00
64080;BME280;51042;49.696;10.808;2024-03-08T06:23:02;98645.81;;;-0.60;100.00
64080;BME280;51042;49.696;10.808;2024-03-08T06:25:27;98647.47;;;-0.52;100.00
64080;BME280;51042;49.696;10.808;2024-03-08T06:27:52;98648.84;;;-0.43;100.00
64080;BME280;51042;49.696;10.808;2024-03-08T06:30:18;98642.81;;;-0.36;100.00
64080;BME280;51042;49.696;10.808;2024-03-08T06:32:45;98641.38;;;-0.30;100.00
64080;BME280;51042;49.696;10.808;2024-03-08T06:35:10;98642.28;;;-0.22;100.00
64080;BME280;51042;49.696;10.808;2024-03-08T06:37:36;98639.72;;;-0.15;100.00
64080;BME280;51042;49.696;10.808;2024-03-08T06:40:01;98636.81;;;-0.07;100.00
64080;BME280;51042;49.696;10.808;2024-03-08T06:42:28;98635.28;;;-0.04;100.00
64080;BME280;51042;49.696;10.808;2024-03-08T06:44:54;98631.59;;;0.04;100.00
64080;BME280;51042;49.696;10.808;2024-03-08T06:47:24;98634.41;;;0.11;100.00
64080;BME280;51042;49.696;10.808;2024-03-08T06:49:50;98632.53;;;0.15;100.00
64080;BME280;51042;49.696;10.808;2024-03-08T06:52:17;98624.56;;;0.22;100.00
64080;BME280;51042;49.696;10.808;2024-03-08T06:54:42;98628.88;;;0.27;100.00
64080;BME280;51042;49.696;10.808;2024-03-08T06:57:07;98616.28;;;0.34;100.00
64080;BME280;51042;49.696;10.808;2024-03-08T06:59:35;98616.03;;;0.43;100.00
64080;BME280;51042;49.696;10.808;2024-03-08T07:02:01;98614.22;;;0.51;100.00
64080;BME280;51042;49.696;10.808;2024-03-08T07:04:29;98615.16;;;0.62;100.00
64080;BME280;51042;49.696;10.808;2024-03-08T07:06:57;98608.66;;;0.66;100.00
64080;BME280;51042;49.696;10.808;2024-03-08T07:09:23;98603.03;;;0.78;100.00
64080;BME280;51042;49.696;10.808;2024-03-08T07:11:49;98602.31;;;0.81;100.00
64080;BME280;51042;49.696;10.808;2024-03-08T07:14:19;98596.25;;;0.88;100.00
64080;BME280;51042;49.696;10.808;2024-03-08T07:16:46;98593.69;;;0.99;100.00
64080;BME280;51042;49.696;10.808;2024-03-08T07:19:12;98586.84;;;1.08;100.00
64080;BME280;51042;49.696;10.808;2024-03-08T07:21:37;98577.31;;;1.18;100.00
64080;BME280;51042;49.696;10.808;2024-03-08T07:24:02;98577.78;;;1.23;100.00
64080;BME280;51042;49.696;10.808;2024-03-08T07:26:38;98580.94;;;1.33;100.00
64080;BME280;51042;49.696;10.808;2024-03-08T07:29:03;98570.66;;;1.42;100.00
64080;BME280;51042;49.696;10.808;2024-03-08T07:31:29;98562.63;;;1.52;100.00
64080;BME280;51042;49.696;10.808;2024-03-08T07:34:10;98558.19;;;1.71;100.00
64080;BME280;51042;49.696;10.808;2024-03-08T07:36:35;98548.25;;;1.82;100.00
64080;BME280;51042;49.696;10.808;2024-03-08T07:39:01;98541.78;;;1.97;100.00
64080;BME280;51042;49.696;10.808;2024-03-08T07:41:26;98530.72;;;2.13;100.00
64080;BME280;51042;49.696;10.808;2024-03-08T07:43:52;98524.53;;;2.16;100.00
64080;BME280;51042;49.696;10.808;2024-03-08T07:46:18;98522.66;;;2.20;100.00
64080;BME280;51042;49.696;10.808;2024-03-08T07:48:43;98517.66;;;2.25;100.00
64080;BME280;51042;49.696;10.808;2024-03-08T07:51:10;98508.03;;;2.35;100.00
64080;BME280;51042;49.696;10.808;2024-03-08T07:53:37;98502.63;;;2.38;100.00
64080;BME280;51042;49.696;10.808;2024-03-08T07:56:03;98506.53;;;2.41;100.00
64080;BME280;51042;49.696;10.808;2024-03-08T07:58:30;98496.13;;;2.46;100.00
64080;BME280;51042;49.696;10.808;2024-03-08T08:00:55;98488.41;;;2.52;100.00
64080;BME280;51042;49.696;10.808;2024-03-08T08:03:20;98489.22;;;2.63;100.00
64080;BME280;51042;49.696;10.808;2024-03-08T08:05:46;98487.41;;;2.85;100.00
64080;BME280;51042;49.696;10.808;2024-03-08T08:08:11;98475.00;;;2.80;100.00
64080;BME280;51042;49.696;10.808;2024-03-08T08:10:37;98483.53;;;2.86;100.00
64080;BME280;51042;49.696;10.808;2024-03-08T08:13:02;98466.09;;;2.87;100.00
64080;BME280;51042;49.696;10.808;2024-03-08T08:15:31;98464.19;;;2.87;100.00
64080;BME280;51042;49.696;10.808;2024-03-08T08:17:56;98451.06;;;2.97;100.00
64080;BME280;51042;49.696;10.808;2024-03-08T08:20:22;98447.59;;;3.03;100.00
64080;BME280;51042;49.696;10.808;2024-03-08T08:22:48;98448.81;;;3.31;100.00
64080;BME280;51042;49.696;10.808;2024-03-08T08:25:13;98433.69;;;3.37;100.00
64080;BME280;51042;49.696;10.808;2024-03-08T08:27:45;98425.16;;;3.35;100.00
64080;BME280;51042;49.696;10.808;2024-03-08T08:30:11;98431.78;;;3.44;100.00
64080;BME280;51042;49.696;10.808;2024-03-08T08:32:37;98422.47;;;3.49;100.00
64080;BME280;51042;49.696;10.808;2024-03-08T08:35:04;98425.56;;;3.76;100.00
64080;BME280;51042;49.696;10.808;2024-03-08T08:37:30;98417.06;;;3.81;100.00
64080;BME280;51042;49.696;10.808;2024-03-08T08:39:56;98412.38;;;3.92;100.00
64080;BME280;51042;49.696;10.808;2024-03-08T08:42:22;98405.38;;;4.05;100.00
64080;BME280;51042;49.696;10.808;2024-03-08T08:44:48;98398.78;;;4.02;100.00
64080;BME280;51042;49.696;10.808;2024-03-08T08:47:15;98384.78;;;4.15;100.00
64080;BME280;51042;49.696;10.808;2024-03-08T08:49:43;98385.59;;;4.04;100.00
64080;BME280;51042;49.696;10.808;2024-03-08T08:52:09;98385.59;;;4.04;100.00
64080;BME280;51042;49.696;10.808;2024-03-08T08:54:34;98378.94;;;4.23;100.00
64080;BME280;51042;49.696;10.808;2024-03-08T08:57:01;98375.00;;;4.38;100.00
64080;BME280;51042;49.696;10.808;2024-03-08T08:59:32;98362.16;;;4.49;100.00
64080;BME280;51042;49.696;10.808;2024-03-08T09:01:58;98361.72;;;4.55;100.00
64080;BME280;51042;49.696;10.808;2024-03-08T09:04:23;98353.13;;;4.67;100.00
64080;BME280;51042;49.696;10.808;2024-03-08T09:06:49;98351.22;;;4.60;100.00
64080;BME280;51042;49.696;10.808;2024-03-08T09:09:14;98346.38;;;4.92;100.00
64080;BME280;51042;49.696;10.808;2024-03-08T09:11:39;98343.31;;;4.87;100.00
64080;BME280;51042;49.696;10.808;2024-03-08T09:14:08;98350.34;;;4.81;100.00
64080;BME280;51042;49.696;10.808;2024-03-08T09:16:34;98339.63;;;5.15;100.00
64080;BME280;51042;49.696;10.808;2024-03-08T09:18:59;98326.41;;;5.13;100.00
64080;BME280;51042;49.696;10.808;2024-03-08T09:21:25;98338.06;;;5.17;100.00
64080;BME280;51042;49.696;10.808;2024-03-08T09:23:52;98326.28;;;5.31;100.00
64080;BME280;51042;49.696;10.808;2024-03-08T09:26:17;98310.22;;;5.44;100.00
64080;BME280;51042;49.696;10.808;2024-03-08T09:28:43;98318.88;;;5.31;100.00
64080;BME280;51042;49.696;10.808;2024-03-08T09:31:08;98307.66;;;5.29;100.00
64080;BME280;51042;49.696;10.808;2024-03-08T09:33:36;98312.75;;;5.24;100.00
64080;BME280;51042;49.696;10.808;2024-03-08T09:36:01;98312.00;;;5.61;100.00
64080;BME280;51042;49.696;10.808;2024-03-08T09:38:28;98304.28;;;5.97;100.00
64080;BME280;51042;49.696;10.808;2024-03-08T09:40:54;98302.13;;;6.15;100.00
64080;BME280;51042;49.696;10.808;2024-03-08T09:43:21;98304.38;;;6.20;100.00
64080;BME280;51042;49.696;10.808;2024-03-08T09:45:49;98286.16;;;6.17;100.00
64080;BME280;51042;49.696;10.808;2024-03-08T09:48:16;98290.75;;;6.24;100.00
64080;BME280;51042;49.696;10.808;2024-03-08T09:50:44;98294.00;;;5.74;100.00
64080;BME280;51042;49.696;10.808;2024-03-08T09:53:11;98291.44;;;5.97;100.00
64080;BME280;51042;49.696;10.808;2024-03-08T09:55:37;98291.91;;;6.23;100.00
64080;BME280;51042;49.696;10.808;2024-03-08T09:58:07;98283.25;;;5.97;100.00
64080;BME280;51042;49.696;10.808;2024-03-08T10:00:54;98287.31;;;6.16;100.00
64080;BME280;51042;49.696;10.808;2024-03-08T10:03:22;98279.00;;;6.27;100.00
64080;BME280;51042;49.696;10.808;2024-03-08T10:05:47;98283.63;;;6.60;100.00
64080;BME280;51042;49.696;10.808;2024-03-08T10:08:13;98275.63;;;7.00;100.00
64080;BME280;51042;49.696;10.808;2024-03-08T10:10:39;98276.09;;;6.94;100.00
64080;BME280;51042;49.696;10.808;2024-03-08T10:13:07;98270.59;;;6.98;100.00
64080;BME280;51042;49.696;10.808;2024-03-08T10:15:34;98258.47;;;6.76;100.00
64080;BME280;51042;49.696;10.808;2024-03-08T10:18:00;98266.91;;;6.85;100.00
64080;BME280;51042;49.696;10.808;2024-03-08T10:20:27;98263.28;;;6.91;100.00
64080;BME280;51042;49.696;10.808;2024-03-08T10:22:58;98255.63;;;6.83;100.00
64080;BME280;51042;49.696;10.808;2024-03-08T10:25:24;98258.16;;;7.20;100.00
64080;BME280;51042;49.696;10.808;2024-03-08T10:27:49;98255.91;;;7.58;100.00
64080;BME280;51042;49.696;10.808;2024-03-08T10:30:16;98264.72;;;7.23;100.00
64080;BME280;51042;49.696;10.808;2024-03-08T10:32:46;98244.56;;;7.17;100.00
64080;BME280;51042;49.696;10.808;2024-03-08T10:35:12;98245.50;;;7.07;100.00
64080;BME280;51042;49.696;10.808;2024-03-08T10:37:43;98233.53;;;7.01;100.00
64080;BME280;51042;49.696;10.808;2024-03-08T10:40:15;98240.34;;;7.12;100.00
64080;BME280;51042;49.696;10.808;2024-03-08T10:42:55;98220.13;;;7.10;100.00
64080;BME280;51042;49.696;10.808;2024-03-08T10:47:50;98229.28;;;7.43;100.00
64080;BME280;51042;49.696;10.808;2024-03-08T10:50:29;98232.47;;;7.80;100.00
64080;BME280;51042;49.696;10.808;2024-03-08T10:52:59;98223.00;;;7.65;100.00
64080;BME280;51042;49.696;10.808;2024-03-08T10:55:26;98220.50;;;7.74;100.00
64080;BME280;51042;49.696;10.808;2024-03-08T10:57:53;98219.97;;;8.19;100.00
64080;BME280;51042;49.696;10.808;2024-03-08T11:00:19;98207.19;;;7.76;100.00
64080;BME280;51042;49.696;10.808;2024-03-08T11:02:51;98212.94;;;7.82;100.00
64080;BME280;51042;49.696;10.808;2024-03-08T11:08:19;98203.31;;;8.13;100.00
64080;BME280;51042;49.696;10.808;2024-03-08T11:10:53;98194.78;;;8.64;100.00
64080;BME280;51042;49.696;10.808;2024-03-08T11:13:39;98192.59;;;9.20;100.00
64080;BME280;51042;49.696;10.808;2024-03-08T11:16:10;98180.56;;;9.01;100.00
64080;BME280;51042;49.696;10.808;2024-03-08T11:18:36;98172.44;;;8.33;100.00
64080;BME280;51042;49.696;10.808;2024-03-08T11:21:07;98167.84;;;8.62;100.00
64080;BME280;51042;49.696;10.808;2024-03-08T11:23:37;98154.50;;;8.48;100.00
64080;BME280;51042;49.696;10.808;2024-03-08T11:26:05;98162.09;;;8.40;100.00
64080;BME280;51042;49.696;10.808;2024-03-08T11:28:43;98154.34;;;8.55;100.00
64080;BME280;51042;49.696;10.808;2024-03-08T11:33:37;98137.84;;;9.20;100.00
64080;BME280;51042;49.696;10.808;2024-03-08T11:36:12;98129.78;;;8.84;100.00
64080;BME280;51042;49.696;10.808;2024-03-08T11:38:47;98126.66;;;9.14;100.00
64080;BME280;51042;49.696;10.808;2024-03-08T11:41:17;98120.47;;;8.97;100.00
64080;BME280;51042;49.696;10.808;2024-03-08T11:43:45;98119.59;;;9.00;100.00
64080;BME280;51042;49.696;10.808;2024-03-08T11:46:11;98125.25;;;8.93;100.00
64080;BME280;51042;49.696;10.808;2024-03-08T11:48:40;98131.41;;;8.97;100.00
64080;BME280;51042;49.696;10.808;2024-03-08T11:51:12;98117.16;;;8.74;100.00
64080;BME280;51042;49.696;10.808;2024-03-08T11:53:38;98113.63;;;8.89;100.00
64080;BME280;51042;49.696;10.808;2024-03-08T11:56:05;98114.94;;;9.14;100.00
64080;BME280;51042;49.696;10.808;2024-03-08T11:58:32;98100.16;;;9.11;100.00
64080;BME280;51042;49.696;10.808;2024-03-08T12:01:04;98106.44;;;8.95;100.00
64080;BME280;51042;49.696;10.808;2024-03-08T12:03:30;98097.94;;;9.35;100.00
64080;BME280;51042;49.696;10.808;2024-03-08T12:05:58;98089.75;;;9.60;100.00
64080;BME280;51042;49.696;10.808;2024-03-08T12:08:24;98081.16;;;9.33;100.00
64080;BME280;51042;49.696;10.808;2024-03-08T12:10:53;98087.72;;;9.35;100.00
64080;BME280;51042;49.696;10.808;2024-03-08T12:13:20;98082.00;;;9.59;100.00
64080;BME280;51042;49.696;10.808;2024-03-08T12:15:46;98069.06;;;9.47;100.00
64080;BME280;51042;49.696;10.808;2024-03-08T12:18:12;98071.03;;;9.46;100.00
64080;BME280;51042;49.696;10.808;2024-03-08T12:20:37;98064.53;;;9.40;100.00
64080;BME280;51042;49.696;10.808;2024-03-08T12:23:04;98059.28;;;9.46;100.00
64080;BME280;51042;49.696;10.808;2024-03-08T12:25:31;98061.72;;;9.56;100.00
64080;BME280;51042;49.696;10.808;2024-03-08T12:28:09;98068.22;;;9.88;100.00
64080;BME280;51042;49.696;10.808;2024-03-08T12:30:37;98070.84;;;9.91;100.00
64080;BME280;51042;49.696;10.808;2024-03-08T12:33:10;98061.75;;;9.81;100.00
64080;BME280;51042;49.696;10.808;2024-03-08T12:35:37;98053.97;;;9.80;100.00
64080;BME280;51042;49.696;10.808;2024-03-08T12:38:03;98055.94;;;9.79;100.00
64080;BME280;51042;49.696;10.808;2024-03-08T12:40:31;98054.59;;;9.59;100.00
64080;BME280;51042;49.696;10.808;2024-03-08T12:42:59;98046.72;;;9.86;100.00
64080;BME280;51042;49.696;10.808;2024-03-08T12:45:25;98040.69;;;9.91;100.00
64080;BME280;51042;49.696;10.808;2024-03-08T12:47:52;98027.09;;;9.88;100.00
64080;BME280;51042;49.696;10.808;2024-03-08T12:50:18;98030.16;;;9.90;100.00